Archival Weather

Heathrow

London, United Kingdom (EGLL)

Report from: Thursday, September 21, 2023 9:50 AM BST
Current time: Sunday, July 14, 2024 11:50 AM BST

Current weather – Weather history – Daily summaries
Weather forecast

Temperature14.0°C (57.2°F)
Dew point11.0°C (51.8°F)
Winds 5 kts (2.6 m/s, 5.8 mph) Vrb
Winds variableWinds variable from South (180°) to West (270°)
Visibility6.2 mi. (10 km)
Clouds Sky clear
Altimeter29.41 in.Hg (996 mB)
Relative humidity82 %
Density altitude654 ft. (199 m)
Remarks Fully automated report
No clouds detected
Flight conditions Visual Meteorological Conditions
Raw dataEGLL 210850Z AUTO 23005KT 180V270 9999 NCD 14/11 Q0996
An error has occurred. This application may no longer respond until reloaded. Reload 🗙